sensor_id;sensor_type;location;lat;lon;timestamp;pressure;altitude;pressure_sealevel;temperature;humidity
68476;BME280;55464;48.266;14.188;2023-04-07T00:02:02;97861.91;;;4.83;52.48
68476;BME280;55464;48.266;14.188;2023-04-07T00:04:27;97867.28;;;4.74;52.74
68476;BME280;55464;48.266;14.188;2023-04-07T00:06:53;97856.66;;;4.59;53.02
68476;BME280;55464;48.266;14.188;2023-04-07T00:09:18;97855.97;;;4.53;53.44
68476;BME280;55464;48.266;14.188;2023-04-07T00:11:44;97857.47;;;4.46;53.86
68476;BME280;55464;48.266;14.188;2023-04-07T00:14:09;97856.06;;;4.48;54.06
68476;BME280;55464;48.266;14.188;2023-04-07T00:16:34;97852.81;;;4.46;54.27
68476;BME280;55464;48.266;14.188;2023-04-07T00:19:00;97850.41;;;4.45;54.60
68476;BME280;55464;48.266;14.188;2023-04-07T00:21:26;97856.34;;;4.47;54.54
68476;BME280;55464;48.266;14.188;2023-04-07T00:23:51;97859.91;;;4.47;54.47
68476;BME280;55464;48.266;14.188;2023-04-07T00:26:17;97857.19;;;4.47;54.43
68476;BME280;55464;48.266;14.188;2023-04-07T00:28:42;97858.47;;;4.50;54.18
68476;BME280;55464;48.266;14.188;2023-04-07T00:31:07;97850.09;;;4.46;54.60
68476;BME280;55464;48.266;14.188;2023-04-07T00:33:33;97845.31;;;4.38;54.40
68476;BME280;55464;48.266;14.188;2023-04-07T00:35:58;97855.66;;;4.41;54.59
68476;BME280;55464;48.266;14.188;2023-04-07T00:38:24;97846.25;;;4.33;54.48
68476;BME280;55464;48.266;14.188;2023-04-07T00:40:49;97848.78;;;4.30;54.82
68476;BME280;55464;48.266;14.188;2023-04-07T00:43:15;97853.00;;;4.22;55.04
68476;BME280;55464;48.266;14.188;2023-04-07T00:45:40;97842.81;;;4.14;55.13
68476;BME280;55464;48.266;14.188;2023-04-07T00:48:06;97838.94;;;4.15;54.92
68476;BME280;55464;48.266;14.188;2023-04-07T00:50:31;97841.38;;;4.16;55.32
68476;BME280;55464;48.266;14.188;2023-04-07T00:52:57;97848.66;;;4.21;55.41
68476;BME280;55464;48.266;14.188;2023-04-07T00:55:22;97844.81;;;4.22;55.37
68476;BME280;55464;48.266;14.188;2023-04-07T00:57:48;97841.78;;;4.24;55.66
68476;BME280;55464;48.266;14.188;2023-04-07T01:00:13;97845.94;;;4.21;56.05
68476;BME280;55464;48.266;14.188;2023-04-07T01:02:40;97836.94;;;4.21;55.76
68476;BME280;55464;48.266;14.188;2023-04-07T01:05:16;97835.31;;;4.20;55.72
68476;BME280;55464;48.266;14.188;2023-04-07T01:10:53;97837.84;;;4.16;55.80
68476;BME280;55464;48.266;14.188;2023-04-07T01:13:30;97836.81;;;4.12;55.81
68476;BME280;55464;48.266;14.188;2023-04-07T01:16:00;97825.69;;;4.08;55.93
68476;BME280;55464;48.266;14.188;2023-04-07T01:18:31;97830.06;;;4.09;56.05
68476;BME280;55464;48.266;14.188;2023-04-07T01:21:03;97819.34;;;4.13;55.90
68476;BME280;55464;48.266;14.188;2023-04-07T01:23:46;97813.09;;;4.12;55.85
68476;BME280;55464;48.266;14.188;2023-04-07T01:26:17;97824.31;;;4.11;55.56
68476;BME280;55464;48.266;14.188;2023-04-07T01:31:22;97816.91;;;4.11;55.58
68476;BME280;55464;48.266;14.188;2023-04-07T01:33:51;97825.09;;;4.11;55.58
68476;BME280;55464;48.266;14.188;2023-04-07T01:36:19;97812.06;;;4.08;55.48
68476;BME280;55464;48.266;14.188;2023-04-07T01:38:46;97818.34;;;4.09;55.61
68476;BME280;55464;48.266;14.188;2023-04-07T01:41:13;97817.00;;;4.06;55.98
68476;BME280;55464;48.266;14.188;2023-04-07T01:43:40;97819.53;;;4.03;56.14
68476;BME280;55464;48.266;14.188;2023-04-07T01:46:06;97818.53;;;3.98;56.48
68476;BME280;55464;48.266;14.188;2023-04-07T01:48:33;97818.63;;;3.93;56.41
68476;BME280;55464;48.266;14.188;2023-04-07T01:51:00;97817.00;;;3.92;56.53
68476;BME280;55464;48.266;14.188;2023-04-07T01:53:26;97813.75;;;3.90;56.60
68476;BME280;55464;48.266;14.188;2023-04-07T01:55:52;97809.44;;;3.89;56.74
68476;BME280;55464;48.266;14.188;2023-04-07T01:58:18;97811.53;;;3.92;56.61
68476;BME280;55464;48.266;14.188;2023-04-07T02:00:44;97806.09;;;3.92;56.84
68476;BME280;55464;48.266;14.188;2023-04-07T02:03:17;97801.84;;;3.86;56.85
68476;BME280;55464;48.266;14.188;2023-04-07T02:05:46;97795.69;;;3.81;57.09
68476;BME280;55464;48.266;14.188;2023-04-07T02:08:15;97797.78;;;3.84;57.14
68476;BME280;55464;48.266;14.188;2023-04-07T02:10:42;97798.31;;;3.86;57.21
68476;BME280;55464;48.266;14.188;2023-04-07T02:13:15;97795.69;;;3.81;57.10
68476;BME280;55464;48.266;14.188;2023-04-07T02:15:41;97807.09;;;3.83;57.46
68476;BME280;55464;48.266;14.188;2023-04-07T02:18:09;97800.00;;;3.82;57.57
68476;BME280;55464;48.266;14.188;2023-04-07T02:20:37;97799.50;;;3.79;57.75
68476;BME280;55464;48.266;14.188;2023-04-07T02:23:06;97792.75;;;3.77;57.97
68476;BME280;55464;48.266;14.188;2023-04-07T02:25:32;97802.53;;;3.78;57.92
68476;BME280;55464;48.266;14.188;2023-04-07T02:27:59;97791.19;;;3.71;58.13
68476;BME280;55464;48.266;14.188;2023-04-07T02:30:25;97804.25;;;3.74;58.24
68476;BME280;55464;48.266;14.188;2023-04-07T02:32:51;97795.22;;;3.73;58.46
68476;BME280;55464;48.266;14.188;2023-04-07T02:35:17;97792.28;;;3.70;58.58
68476;BME280;55464;48.266;14.188;2023-04-07T02:37:44;97784.31;;;3.59;58.65
68476;BME280;55464;48.266;14.188;2023-04-07T02:40:10;97786.00;;;3.55;59.60
68476;BME280;55464;48.266;14.188;2023-04-07T02:42:35;97783.16;;;3.47;59.58
68476;BME280;55464;48.266;14.188;2023-04-07T02:45:02;97774.06;;;3.37;59.97
68476;BME280;55464;48.266;14.188;2023-04-07T02:47:27;97777.16;;;3.31;59.65
68476;BME280;55464;48.266;14.188;2023-04-07T02:49:53;97766.84;;;3.28;59.00
68476;BME280;55464;48.266;14.188;2023-04-07T02:52:18;97777.16;;;3.31;59.30
68476;BME280;55464;48.266;14.188;2023-04-07T02:54:44;97782.38;;;3.27;59.27
68476;BME280;55464;48.266;14.188;2023-04-07T02:57:09;97777.31;;;3.20;59.39
68476;BME280;55464;48.266;14.188;2023-04-07T02:59:35;97783.38;;;3.17;59.65
68476;BME280;55464;48.266;14.188;2023-04-07T03:02:00;97775.50;;;3.16;59.64
68476;BME280;55464;48.266;14.188;2023-04-07T03:04:26;97786.59;;;3.19;59.45
68476;BME280;55464;48.266;14.188;2023-04-07T03:06:51;97785.78;;;3.19;59.17
68476;BME280;55464;48.266;14.188;2023-04-07T03:09:17;97773.66;;;3.11;59.40
68476;BME280;55464;48.266;14.188;2023-04-07T03:11:42;97778.06;;;3.07;59.50
68476;BME280;55464;48.266;14.188;2023-04-07T03:14:08;97775.44;;;3.02;59.88
68476;BME280;55464;48.266;14.188;2023-04-07T03:16:33;97767.91;;;2.94;60.49
68476;BME280;55464;48.266;14.188;2023-04-07T03:18:58;97769.63;;;2.90;60.37
68476;BME280;55464;48.266;14.188;2023-04-07T03:21:24;97767.19;;;2.88;60.53
68476;BME280;55464;48.266;14.188;2023-04-07T03:23:49;97767.47;;;2.87;60.68
68476;BME280;55464;48.266;14.188;2023-04-07T03:26:15;97763.06;;;2.91;60.57
68476;BME280;55464;48.266;14.188;2023-04-07T03:28:40;97764.69;;;2.92;60.44
68476;BME280;55464;48.266;14.188;2023-04-07T03:31:05;97766.69;;;2.86;60.77
68476;BME280;55464;48.266;14.188;2023-04-07T03:33:31;97761.53;;;2.84;60.69
68476;BME280;55464;48.266;14.188;2023-04-07T03:35:56;97755.34;;;2.79;60.90
68476;BME280;55464;48.266;14.188;2023-04-07T03:38:22;97759.75;;;2.75;60.75
68476;BME280;55464;48.266;14.188;2023-04-07T03:40:47;97761.09;;;2.77;60.70
68476;BME280;55464;48.266;14.188;2023-04-07T03:43:12;97756.28;;;2.69;60.51
68476;BME280;55464;48.266;14.188;2023-04-07T03:45:40;97771.53;;;2.70;60.90
68476;BME280;55464;48.266;14.188;2023-04-07T03:48:06;97758.50;;;2.67;60.79
68476;BME280;55464;48.266;14.188;2023-04-07T03:50:34;97764.91;;;2.76;61.00
68476;BME280;55464;48.266;14.188;2023-04-07T03:53:00;97761.66;;;2.74;61.02
68476;BME280;55464;48.266;14.188;2023-04-07T03:55:26;97765.69;;;2.77;60.86
68476;BME280;55464;48.266;14.188;2023-04-07T03:57:51;97769.53;;;2.76;60.75
68476;BME280;55464;48.266;14.188;2023-04-07T04:00:17;97749.53;;;2.67;61.44
68476;BME280;55464;48.266;14.188;2023-04-07T04:02:42;97758.78;;;2.65;61.45
68476;BME280;55464;48.266;14.188;2023-04-07T04:05:08;97759.97;;;2.59;61.54
68476;BME280;55464;48.266;14.188;2023-04-07T04:07:33;97763.22;;;2.61;61.38
68476;BME280;55464;48.266;14.188;2023-04-07T04:10:00;97748.28;;;2.59;61.77
68476;BME280;55464;48.266;14.188;2023-04-07T04:12:25;97754.84;;;2.58;61.46
68476;BME280;55464;48.266;14.188;2023-04-07T04:14:51;97761.38;;;2.57;61.83
68476;BME280;55464;48.266;14.188;2023-04-07T04:17:17;97756.22;;;2.55;61.85
68476;BME280;55464;48.266;14.188;2023-04-07T04:19:42;97750.25;;;2.53;61.78
68476;BME280;55464;48.266;14.188;2023-04-07T04:22:08;97751.41;;;2.47;61.94
68476;BME280;55464;48.266;14.188;2023-04-07T04:24:33;97744.94;;;2.43;62.29
68476;BME280;55464;48.266;14.188;2023-04-07T04:26:59;97752.97;;;2.53;61.97
68476;BME280;55464;48.266;14.188;2023-04-07T04:29:26;97743.94;;;2.58;61.86
68476;BME280;55464;48.266;14.188;2023-04-07T04:31:51;97747.19;;;2.60;61.63
68476;BME280;55464;48.266;14.188;2023-04-07T04:34:16;97751.06;;;2.54;61.58
68476;BME280;55464;48.266;14.188;2023-04-07T04:36:42;97753.72;;;2.59;61.32
68476;BME280;55464;48.266;14.188;2023-04-07T04:39:07;97756.94;;;2.61;61.31
68476;BME280;55464;48.266;14.188;2023-04-07T04:41:33;97756.16;;;2.60;60.95
68476;BME280;55464;48.266;14.188;2023-04-07T04:43:58;97756.78;;;2.52;61.08
68476;BME280;55464;48.266;14.188;2023-04-07T04:46:24;97746.88;;;2.42;61.50
68476;BME280;55464;48.266;14.188;2023-04-07T04:48:49;97747.66;;;2.43;61.32
68476;BME280;55464;48.266;14.188;2023-04-07T04:51:16;97751.19;;;2.43;61.21
68476;BME280;55464;48.266;14.188;2023-04-07T04:53:42;97757.97;;;2.46;61.32
68476;BME280;55464;48.266;14.188;2023-04-07T04:56:08;97745.53;;;2.40;61.44
68476;BME280;55464;48.266;14.188;2023-04-07T04:58:34;97748.31;;;2.35;61.83
68476;BME280;55464;48.266;14.188;2023-04-07T05:01:00;97736.19;;;2.27;62.07
68476;BME280;55464;48.266;14.188;2023-04-07T05:03:27;97744.56;;;2.31;62.05
68476;BME280;55464;48.266;14.188;2023-04-07T05:05:53;97741.56;;;2.32;62.40
68476;BME280;55464;48.266;14.188;2023-04-07T05:08:18;97742.06;;;2.34;62.61
68476;BME280;55464;48.266;14.188;2023-04-07T05:10:45;97747.84;;;2.27;62.71
68476;BME280;55464;48.266;14.188;2023-04-07T05:13:10;97747.19;;;2.17;62.79
68476;BME280;55464;48.266;14.188;2023-04-07T05:15:36;97755.00;;;2.23;62.96
68476;BME280;55464;48.266;14.188;2023-04-07T05:18:01;97754.19;;;2.23;62.68
68476;BME280;55464;48.266;14.188;2023-04-07T05:20:27;97753.06;;;2.24;63.13
68476;BME280;55464;48.266;14.188;2023-04-07T05:22:52;97747.34;;;2.25;63.15
68476;BME280;55464;48.266;14.188;2023-04-07T05:25:17;97745.75;;;2.24;63.03
68476;BME280;55464;48.266;14.188;2023-04-07T05:27:43;97745.66;;;2.30;63.02
68476;BME280;55464;48.266;14.188;2023-04-07T05:30:08;97741.34;;;2.29;62.97
68476;BME280;55464;48.266;14.188;2023-04-07T05:32:34;97751.09;;;2.30;62.98
68476;BME280;55464;48.266;14.188;2023-04-07T05:34:59;97741.03;;;2.30;63.00
68476;BME280;55464;48.266;14.188;2023-04-07T05:37:25;97746.19;;;2.32;62.95
68476;BME280;55464;48.266;14.188;2023-04-07T05:39:50;97742.94;;;2.30;62.69
68476;BME280;55464;48.266;14.188;2023-04-07T05:42:15;97741.56;;;2.32;62.88
68476;BME280;55464;48.266;14.188;2023-04-07T05:44:41;97745.31;;;2.36;62.57
68476;BME280;55464;48.266;14.188;2023-04-07T05:47:06;97748.03;;;2.36;62.47
68476;BME280;55464;48.266;14.188;2023-04-07T05:49:36;97745.31;;;2.36;62.64
68476;BME280;55464;48.266;14.188;2023-04-07T05:52:03;97747.44;;;2.39;62.34
68476;BME280;55464;48.266;14.188;2023-04-07T05:54:30;97754.50;;;2.40;62.30
68476;BME280;55464;48.266;14.188;2023-04-07T05:56:55;97756.63;;;2.43;61.79
68476;BME280;55464;48.266;14.188;2023-04-07T05:59:21;97763.53;;;2.36;61.94
68476;BME280;55464;48.266;14.188;2023-04-07T06:01:47;97754.88;;;2.34;61.91
68476;BME280;55464;48.266;14.188;2023-04-07T06:04:13;97753.22;;;2.33;61.92
68476;BME280;55464;48.266;14.188;2023-04-07T06:06:38;97751.03;;;2.35;62.15
68476;BME280;55464;48.266;14.188;2023-04-07T06:09:04;97744.00;;;2.34;62.15
68476;BME280;55464;48.266;14.188;2023-04-07T06:11:29;97751.56;;;2.37;61.80
68476;BME280;55464;48.266;14.188;2023-04-07T06:13:55;97749.94;;;2.36;61.97
68476;BME280;55464;48.266;14.188;2023-04-07T06:16:20;97745.59;;;2.35;62.04
68476;BME280;55464;48.266;14.188;2023-04-07T06:18:46;97755.53;;;2.44;62.41
68476;BME280;55464;48.266;14.188;2023-04-07T06:21:11;97751.41;;;2.47;62.12
68476;BME280;55464;48.266;14.188;2023-04-07T06:23:37;97757.06;;;2.51;62.40
68476;BME280;55464;48.266;14.188;2023-04-07T06:26:02;97754.06;;;2.52;62.10
68476;BME280;55464;48.266;14.188;2023-04-07T06:28:28;97756.00;;;2.52;62.10
68476;BME280;55464;48.266;14.188;2023-04-07T06:30:53;97754.06;;;2.52;61.99
68476;BME280;55464;48.266;14.188;2023-04-07T06:33:18;97755.41;;;2.55;62.25
68476;BME280;55464;48.266;14.188;2023-04-07T06:35:48;97755.13;;;2.56;62.14
68476;BME280;55464;48.266;14.188;2023-04-07T06:38:13;97761.28;;;2.62;61.79
68476;BME280;55464;48.266;14.188;2023-04-07T06:40:38;97756.94;;;2.61;62.05
68476;BME280;55464;48.266;14.188;2023-04-07T06:43:04;97757.47;;;2.63;62.02
68476;BME280;55464;48.266;14.188;2023-04-07T06:45:30;97759.31;;;2.68;61.98
68476;BME280;55464;48.266;14.188;2023-04-07T06:47:55;97757.16;;;2.64;61.67
68476;BME280;55464;48.266;14.188;2023-04-07T06:50:21;97756.38;;;2.64;61.62
68476;BME280;55464;48.266;14.188;2023-04-07T06:52:46;97763.16;;;2.67;61.56
68476;BME280;55464;48.266;14.188;2023-04-07T06:55:12;97760.66;;;2.70;62.03
68476;BME280;55464;48.266;14.188;2023-04-07T06:57:37;97746.28;;;2.64;62.10
68476;BME280;55464;48.266;14.188;2023-04-07T07:00:03;97762.97;;;2.77;62.20
68476;BME280;55464;48.266;14.188;2023-04-07T07:02:32;97749.09;;;2.78;62.77
68476;BME280;55464;48.266;14.188;2023-04-07T07:04:57;97765.84;;;2.86;61.89
68476;BME280;55464;48.266;14.188;2023-04-07T07:07:22;97762.75;;;2.92;61.80
68476;BME280;55464;48.266;14.188;2023-04-07T07:09:53;97759.47;;;2.95;61.58
68476;BME280;55464;48.266;14.188;2023-04-07T07:12:18;97753.78;;;2.92;61.50
68476;BME280;55464;48.266;14.188;2023-04-07T07:14:43;97762.63;;;3.02;61.02
68476;BME280;55464;48.266;14.188;2023-04-07T07:17:09;97762.84;;;3.06;60.65
68476;BME280;55464;48.266;14.188;2023-04-07T07:19:34;97758.94;;;3.12;60.94
68476;BME280;55464;48.266;14.188;2023-04-07T07:22:00;97762.69;;;3.16;61.34
68476;BME280;55464;48.266;14.188;2023-04-07T07:24:28;97755.81;;;3.19;61.26
68476;BME280;55464;48.266;14.188;2023-04-07T07:26:53;97758.66;;;3.28;61.22
68476;BME280;55464;48.266;14.188;2023-04-07T07:29:19;97772.81;;;3.30;60.74
68476;BME280;55464;48.266;14.188;2023-04-07T07:31:44;97768.38;;;3.34;60.22
68476;BME280;55464;48.266;14.188;2023-04-07T07:34:10;97775.16;;;3.36;60.04
68476;BME280;55464;48.266;14.188;2023-04-07T07:36:35;97771.31;;;3.37;60.11
68476;BME280;55464;48.266;14.188;2023-04-07T07:39:00;97771.03;;;3.39;59.96
68476;BME280;55464;48.266;14.188;2023-04-07T07:41:26;97765.22;;;3.46;60.14
68476;BME280;55464;48.266;14.188;2023-04-07T07:43:51;97766.72;;;3.52;59.73
68476;BME280;55464;48.266;14.188;2023-04-07T07:46:17;97759.59;;;3.56;59.89
68476;BME280;55464;48.266;14.188;2023-04-07T07:48:42;97750.06;;;3.53;60.03
68476;BME280;55464;48.266;14.188;2023-04-07T07:51:08;97762.53;;;3.59;59.99
68476;BME280;55464;48.266;14.188;2023-04-07T07:53:33;97765.66;;;3.67;60.36
68476;BME280;55464;48.266;14.188;2023-04-07T07:55:59;97780.31;;;3.71;60.65
68476;BME280;55464;48.266;14.188;2023-04-07T07:58:24;97773.97;;;3.75;61.11
68476;BME280;55464;48.266;14.188;2023-04-07T08:00:50;97780.13;;;3.81;60.88
68476;BME280;55464;48.266;14.188;2023-04-07T08:03:15;97780.03;;;3.86;61.51
68476;BME280;55464;48.266;14.188;2023-04-07T08:05:41;97777.50;;;3.90;61.78
68476;BME280;55464;48.266;14.188;2023-04-07T08:08:06;97763.88;;;3.90;61.86
68476;BME280;55464;48.266;14.188;2023-04-07T08:10:32;97761.56;;;3.97;61.82
68476;BME280;55464;48.266;14.188;2023-04-07T08:12:57;97767.63;;;4.08;62.12
68476;BME280;55464;48.266;14.188;2023-04-07T08:15:23;97770.84;;;4.10;61.49
68476;BME280;55464;48.266;14.188;2023-04-07T08:17:48;97762.97;;;4.08;61.92
68476;BME280;55464;48.266;14.188;2023-04-07T08:20:14;97761.66;;;4.20;61.55
68476;BME280;55464;48.266;14.188;2023-04-07T08:22:40;97770.84;;;4.24;61.59
68476;BME280;55464;48.266;14.188;2023-04-07T08:25:07;97764.78;;;4.27;60.71
68476;BME280;55464;48.266;14.188;2023-04-07T08:27:32;97757.91;;;4.29;60.38
68476;BME280;55464;48.266;14.188;2023-04-07T08:30:03;97761.66;;;4.33;60.61
68476;BME280;55464;48.266;14.188;2023-04-07T08:32:37;97748.41;;;4.41;60.71
68476;BME280;55464;48.266;14.188;2023-04-07T08:35:03;97754.88;;;4.45;60.86
68476;BME280;55464;48.266;14.188;2023-04-07T08:37:30;97739.53;;;4.49;60.62
68476;BME280;55464;48.266;14.188;2023-04-07T08:39:55;97751.63;;;4.57;59.68
68476;BME280;55464;48.266;14.188;2023-04-07T08:42:23;97747.16;;;4.61;59.29
68476;BME280;55464;48.266;14.188;2023-04-07T08:44:51;97747.88;;;4.66;59.39
68476;BME280;55464;48.266;14.188;2023-04-07T08:47:18;97739.75;;;4.75;59.24
68476;BME280;55464;48.266;14.188;2023-04-07T08:49:49;97740.47;;;4.81;59.43
68476;BME280;55464;48.266;14.188;2023-04-07T08:52:17;97732.47;;;4.84;59.62
68476;BME280;55464;48.266;14.188;2023-04-07T08:54:46;97731.69;;;4.92;59.49
68476;BME280;55464;48.266;14.188;2023-04-07T08:57:13;97738.06;;;5.02;58.89
68476;BME280;55464;48.266;14.188;2023-04-07T08:59:40;97731.03;;;5.09;58.30
68476;BME280;55464;48.266;14.188;2023-04-07T09:02:08;97721.09;;;5.14;57.89
68476;BME280;55464;48.266;14.188;2023-04-07T09:04:34;97728.25;;;5.23;57.14
68476;BME280;55464;48.266;14.188;2023-04-07T09:07:00;97721.88;;;5.28;57.56
68476;BME280;55464;48.266;14.188;2023-04-07T09:09:26;97728.50;;;5.36;57.41
68476;BME280;55464;48.266;14.188;2023-04-07T09:11:51;97721.78;;;5.42;57.27
68476;BME280;55464;48.266;14.188;2023-04-07T09:14:17;97721.31;;;5.48;56.86
68476;BME280;55464;48.266;14.188;2023-04-07T09:16:45;97716.56;;;5.54;55.58
68476;BME280;55464;48.266;14.188;2023-04-07T09:19:11;97715.78;;;5.62;55.36
68476;BME280;55464;48.266;14.188;2023-04-07T09:21:56;97716.31;;;5.73;54.86
68476;BME280;55464;48.266;14.188;2023-04-07T09:24:26;97709.13;;;5.77;54.45
68476;BME280;55464;48.266;14.188;2023-04-07T09:27:12;97707.66;;;5.80;53.75
68476;BME280;55464;48.266;14.188;2023-04-07T09:29:40;97700.31;;;5.89;53.69
68476;BME280;55464;48.266;14.188;2023-04-07T09:32:07;97699.88;;;5.96;53.05
68476;BME280;55464;48.266;14.188;2023-04-07T09:34:35;97697.81;;;6.01;52.40
68476;BME280;55464;48.266;14.188;2023-04-07T09:37:01;97691.88;;;6.08;52.51
68476;BME280;55464;48.266;14.188;2023-04-07T09:39:27;97685.63;;;6.16;52.82
68476;BME280;55464;48.266;14.188;2023-04-07T09:41:54;97689.50;;;6.24;52.62
68476;BME280;55464;48.266;14.188;2023-04-07T09:44:21;97678.09;;;6.31;52.92
68476;BME280;55464;48.266;14.188;2023-04-07T09:49:14;97675.69;;;6.47;53.34
68476;BME280;55464;48.266;14.188;2023-04-07T09:51:57;97683.75;;;6.60;53.96
68476;BME280;55464;48.266;14.188;2023-04-07T09:54:37;97676.84;;;6.72;54.54
68476;BME280;55464;48.266;14.188;2023-04-07T09:57:04;97676.19;;;6.84;53.58
68476;BME280;55464;48.266;14.188;2023-04-07T09:59:31;97669.75;;;6.88;53.50
68476;BME280;55464;48.266;14.188;2023-04-07T10:01:57;97676.03;;;7.06;52.89
68476;BME280;55464;48.266;14.188;2023-04-07T10:04:26;97673.28;;;7.06;52.28
68476;BME280;55464;48.266;14.188;2023-04-07T10:06:56;97670.22;;;7.08;52.99
68476;BME280;55464;48.266;14.188;2023-04-07T10:09:22;97668.31;;;7.08;52.98
68476;BME280;55464;48.266;14.188;2023-04-07T10:11:49;97665.19;;;7.18;52.44
68476;BME280;55464;48.266;14.188;2023-04-07T10:14:17;97657.13;;;7.22;52.34
68476;BME280;55464;48.266;14.188;2023-04-07T10:16:43;97661.50;;;7.23;52.34
68476;BME280;55464;48.266;14.188;2023-04-07T10:19:08;97659.22;;;7.25;52.25
68476;BME280;55464;48.266;14.188;2023-04-07T10:21:42;97655.38;;;7.26;52.22
68476;BME280;55464;48.266;14.188;2023-04-07T10:26:57;97659.53;;;7.32;51.29
68476;BME280;55464;48.266;14.188;2023-04-07T10:29:24;97660.00;;;7.34;51.45
68476;BME280;55464;48.266;14.188;2023-04-07T10:31:51;97648.41;;;7.37;50.25
68476;BME280;55464;48.266;14.188;2023-04-07T10:34:54;97643.06;;;7.41;49.75
68476;BME280;55464;48.266;14.188;2023-04-07T10:37:11;97638.53;;;7.45;47.76
68476;BME280;55464;48.266;14.188;2023-04-07T10:39:38;97646.59;;;7.50;48.13
68476;BME280;55464;48.266;14.188;2023-04-07T10:42:04;97645.91;;;7.53;49.15
68476;BME280;55464;48.266;14.188;2023-04-07T10:47:07;97639.28;;;7.63;48.63
68476;BME280;55464;48.266;14.188;2023-04-07T10:49:33;97647.00;;;7.70;47.44
68476;BME280;55464;48.266;14.188;2023-04-07T10:54:37;97636.16;;;7.82;47.42
68476;BME280;55464;48.266;14.188;2023-04-07T10:59:32;97639.47;;;7.97;47.65
68476;BME280;55464;48.266;14.188;2023-04-07T11:04:48;97625.03;;;8.08;50.28
68476;BME280;55464;48.266;14.188;2023-04-07T11:07:13;97626.56;;;8.18;51.45
68476;BME280;55464;48.266;14.188;2023-04-07T11:09:40;97618.13;;;8.23;50.30
68476;BME280;55464;48.266;14.188;2023-04-07T11:12:06;97617.34;;;8.23;48.18
68476;BME280;55464;48.266;14.188;2023-04-07T11:14:33;97619.06;;;8.27;46.59
68476;BME280;55464;48.266;14.188;2023-04-07T11:17:02;97621.16;;;8.30;44.91
68476;BME280;55464;48.266;14.188;2023-04-07T11:19:27;97614.53;;;8.31;43.88
68476;BME280;55464;48.266;14.188;2023-04-07T11:22:12;97611.59;;;8.37;45.64
68476;BME280;55464;48.266;14.188;2023-04-07T11:24:38;97608.66;;;8.42;45.17
68476;BME280;55464;48.266;14.188;2023-04-07T11:27:03;97618.00;;;8.49;46.09
68476;BME280;55464;48.266;14.188;2023-04-07T11:29:32;97601.44;;;8.58;48.47
68476;BME280;55464;48.266;14.188;2023-04-07T11:32:00;97598.28;;;8.68;47.91
68476;BME280;55464;48.266;14.188;2023-04-07T11:34:32;97593.97;;;8.80;47.94
68476;BME280;55464;48.266;14.188;2023-04-07T11:37:26;97598.63;;;9.00;43.91
68476;BME280;55464;48.266;14.188;2023-04-07T11:39:58;97590.28;;;9.09;44.68
68476;BME280;55464;48.266;14.188;2023-04-07T11:42:34;97593.28;;;9.16;43.98
68476;BME280;55464;48.266;14.188;2023-04-07T11:45:00;97590.31;;;9.21;42.89
68476;BME280;55464;48.266;14.188;2023-04-07T11:47:38;97592.53;;;9.40;42.63
68476;BME280;55464;48.266;14.188;2023-04-07T11:50:05;97578.34;;;9.38;43.10
68476;BME280;55464;48.266;14.188;2023-04-07T11:52:46;97581.56;;;9.53;41.84
68476;BME280;55464;48.266;14.188;2023-04-07T11:57:42;97575.38;;;9.68;41.43
68476;BME280;55464;48.266;14.188;2023-04-07T12:00:12;97578.69;;;9.74;46.06
68476;BME280;55464;48.266;14.188;2023-04-07T12:02:39;97576.50;;;9.79;45.80
68476;BME280;55464;48.266;14.188;2023-04-07T12:05:04;97568.47;;;9.87;42.67
68476;BME280;55464;48.266;14.188;2023-04-07T12:07:30;97560.56;;;9.85;42.68
68476;BME280;55464;48.266;14.188;2023-04-07T12:09:56;97569.63;;;9.98;42.10
68476;BME280;55464;48.266;14.188;2023-04-07T12:12:29;97562.06;;;9.95;42.65
68476;BME280;55464;48.266;14.188;2023-04-07T12:14:55;97562.63;;;10.00;41.11
68476;BME280;55464;48.266;14.188;2023-04-07T12:17:26;97560.22;;;9.99;41.86
68476;BME280;55464;48.266;14.188;2023-04-07T12:19:52;97560.44;;;9.94;42.87
68476;BME280;55464;48.266;14.188;2023-04-07T12:22:18;97563.28;;;10.10;42.13
68476;BME280;55464;48.266;14.188;2023-04-07T12:24:44;97553.75;;;10.19;40.36
68476;BME280;55464;48.266;14.188;2023-04-07T12:27:10;97553.75;;;10.19;41.37
68476;BME280;55464;48.266;14.188;2023-04-07T12:29:36;97547.91;;;10.21;41.47
68476;BME280;55464;48.266;14.188;2023-04-07T12:32:03;97548.25;;;10.32;41.56
68476;BME280;55464;48.266;14.188;2023-04-07T12:34:29;97550.19;;;10.44;41.28
68476;BME280;55464;48.266;14.188;2023-04-07T12:36:54;97552.44;;;10.54;40.11
68476;BME280;55464;48.266;14.188;2023-04-07T12:39:20;97552.84;;;10.68;41.15
68476;BME280;55464;48.266;14.188;2023-04-07T12:41:46;97545.13;;;10.74;40.09
68476;BME280;55464;48.266;14.188;2023-04-07T12:44:12;97553.22;;;10.83;40.73
68476;BME280;55464;48.266;14.188;2023-04-07T12:46:38;97542.75;;;10.88;40.45
68476;BME280;55464;48.266;14.188;2023-04-07T12:49:03;97536.47;;;11.04;41.02
68476;BME280;55464;48.266;14.188;2023-04-07T12:51:29;97548.59;;;11.15;41.23
68476;BME280;55464;48.266;14.188;2023-04-07T12:53:57;97539.16;;;11.32;39.26
68476;BME280;55464;48.266;14.188;2023-04-07T12:56:25;97553.03;;;11.35;39.03
68476;BME280;55464;48.266;14.188;2023-04-07T12:58:50;97527.16;;;11.40;37.78
68476;BME280;55464;48.266;14.188;2023-04-07T13:01:16;97534.81;;;11.47;38.71
68476;BME280;55464;48.266;14.188;2023-04-07T13:03:41;97531.44;;;11.53;37.66
68476;BME280;55464;48.266;14.188;2023-04-07T13:06:07;97532.56;;;11.52;36.66
68476;BME280;55464;48.266;14.188;2023-04-07T13:08:32;97529.53;;;11.58;37.92
68476;BME280;55464;48.266;14.188;2023-04-07T13:10:57;97531.69;;;11.64;38.43
68476;BME280;55464;48.266;14.188;2023-04-07T13:13:23;97528.91;;;11.96;36.24
68476;BME280;55464;48.266;14.188;2023-04-07T13:15:49;97534.50;;;12.00;36.63
68476;BME280;55464;48.266;14.188;2023-04-07T13:18:14;97535.81;;;11.90;37.37
68476;BME280;55464;48.266;14.188;2023-04-07T13:20:40;97522.28;;;11.85;38.39
68476;BME280;55464;48.266;14.188;2023-04-07T13:23:05;97519.78;;;11.80;38.60